Time;durP1;ratioP1;P1;durP2;ratioP2;P2;SDS_P1;SDS_P2;PMS_P1;PMS_P2;Temp;Humidity;BMP_temperature;BMP_pressure;BME280_temperature;BME280_humidity;BME280_pressure;Samples;Min_cycle;Max_cycle;Signal;HPM_P1;HPM_P2
2022/05/10 00:00:08;;;;;;;2.70;1.90;;;12.70;99.90;;;;;;5149608;27;19925;-82
2022/05/10 00:02:34;;;;;;;7.28;2.92;;;12.70;99.90;;;;;;5151547;27;20477;-82
2022/05/10 00:05:00;;;;;;;;;;;12.70;99.90;;;;;;5145779;27;20541;-81
2022/05/10 00:07:30;;;;;;;4.57;2.60;;;12.60;99.90;;;;;;5114615;27;20043;-82
2022/05/10 00:09:56;;;;;;;3.90;2.50;;;12.50;99.90;;;;;;5131631;27;20043;-82
2022/05/10 00:12:22;;;;;;;2.70;1.90;;;12.50;99.90;;;;;;5147487;27;20054;-82
2022/05/10 00:14:48;;;;;;;3.10;1.60;;;12.40;99.90;;;;;;5138278;27;20039;-82
2022/05/10 00:17:30;;;;;;;4.20;1.80;;;12.30;99.90;;;;;;5135002;27;20192;-82
2022/05/10 00:19:56;;;;;;;3.72;1.50;;;12.30;99.90;;;;;;5142868;27;20110;-82
2022/05/10 00:22:22;;;;;;;2.75;1.30;;;12.20;99.90;;;;;;5100765;27;20147;-82
2022/05/10 00:24:48;;;;;;;3.30;1.80;;;12.20;99.90;;;;;;5145473;27;20060;-83
2022/05/10 00:27:13;;;;;;;4.63;2.00;;;12.10;99.90;;;;;;5137821;27;20191;-82
2022/05/10 00:29:39;;;;;;;4.43;1.98;;;12.10;99.90;;;;;;5129844;27;20126;-82
2022/05/10 00:32:05;;;;;;;3.40;2.10;;;12.10;99.90;;;;;;5116393;27;20047;-82
2022/05/10 00:34:31;;;;;;;5.13;1.80;;;12.10;99.90;;;;;;5131529;27;20082;-82
2022/05/10 00:36:58;;;;;;;4.07;2.13;;;12.10;99.90;;;;;;5132400;27;20062;-82
2022/05/10 00:39:23;;;;;;;3.22;1.80;;;12.00;99.90;;;;;;5139055;27;20022;-82
2022/05/10 00:42:01;;;;;;;2.35;1.30;;;12.00;99.90;;;;;;5127010;27;20042;-82
2022/05/10 00:44:49;;;;;;;1.83;1.17;;;12.00;99.90;;;;;;5150125;27;20123;-82
2022/05/10 00:47:26;;;;;;;2.28;1.60;;;12.00;99.90;;;;;;5119292;27;20381;-82
2022/05/10 00:49:59;;;;;;;2.10;1.50;;;12.00;99.90;;;;;;5148957;27;20046;-82
2022/05/10 00:52:41;;;;;;;1.75;1.10;;;12.00;99.90;;;;;;5151525;27;20084;-82
2022/05/10 00:55:16;;;;;;;1.10;0.80;;;12.00;99.90;;;;;;5135381;27;20043;-82
2022/05/10 00:57:50;;;;;;;1.45;1.10;;;11.90;99.90;;;;;;5137033;27;20035;-82
2022/05/10 01:00:26;;;;;;;2.10;0.90;;;11.90;99.90;;;;;;5137648;27;20035;-83
2022/05/10 01:03:22;;;;;;;2.67;1.30;;;11.90;99.90;;;;;;5153695;27;20039;-82
2022/05/10 01:06:08;;;;;;;2.33;1.40;;;11.80;99.90;;;;;;5131932;27;20051;-82
2022/05/10 01:08:45;;;;;;;2.65;1.30;;;11.80;99.90;;;;;;5142820;27;20047;-82
2022/05/10 01:11:24;;;;;;;1.50;1.00;;;11.80;99.90;;;;;;5117375;28;20051;-82
2022/05/10 01:13:59;;;;;;;0.93;0.75;;;11.70;99.90;;;;;;5139920;27;20043;-82
2022/05/10 01:16:25;;;;;;;1.45;1.00;;;11.70;99.90;;;;;;5148187;27;20039;-82
2022/05/10 01:18:52;;;;;;;;;;;11.70;99.90;;;;;;5142542;27;20546;-82
2022/05/10 01:21:35;;;;;;;1.33;0.93;;;11.80;99.90;;;;;;5151164;27;19926;-82
2022/05/10 01:24:21;;;;;;;1.80;0.77;;;11.70;99.90;;;;;;5138383;27;20062;-82
2022/05/10 01:27:14;;;;;;;1.25;0.70;;;11.80;99.90;;;;;;5131987;27;20449;-82
2022/05/10 01:29:49;;;;;;;0.80;0.70;;;11.80;99.90;;;;;;5141632;27;20039;-83
2022/05/10 01:35:23;;;;;;;0.82;0.70;;;11.80;99.90;;;;;;5084186;27;20048;-82
2022/05/10 01:37:54;;;;;;;0.60;0.52;;;11.90;99.90;;;;;;5151301;27;20466;-82
2022/05/10 01:40:36;;;;;;;2.15;0.80;;;11.90;99.90;;;;;;5139803;27;20565;-82
2022/05/10 01:43:17;;;;;;;1.10;0.60;;;12.00;99.90;;;;;;5144813;27;20042;-82
2022/05/10 01:45:51;;;;;;;1.45;1.10;;;12.00;99.90;;;;;;5131832;27;20047;-82
2022/05/10 01:48:21;;;;;;;1.75;1.00;;;12.10;99.90;;;;;;5152614;27;20494;-82
2022/05/10 01:51:00;;;;;;;1.55;0.90;;;12.10;99.90;;;;;;5146207;27;20030;-82
2022/05/10 01:53:35;;;;;;;2.38;0.98;;;12.20;99.90;;;;;;5145936;27;20158;-82
2022/05/10 01:56:03;;;;;;;2.60;1.33;;;12.10;99.90;;;;;;5133910;27;20146;-82
2022/05/10 01:58:33;;;;;;;1.58;0.82;;;12.20;99.90;;;;;;5147675;27;20042;-82
2022/05/10 02:01:07;;;;;;;1.25;1.05;;;12.20;99.90;;;;;;5135104;27;20114;-82
2022/05/10 02:03:38;;;;;;;1.45;0.90;;;12.30;99.90;;;;;;5134975;27;20073;-82
2022/05/10 02:06:30;;;;;;;1.67;1.00;;;12.30;99.90;;;;;;5146462;27;20042;-82
2022/05/10 02:09:05;;;;;;;1.40;0.95;;;12.30;99.90;;;;;;5136983;27;20442;-83
2022/05/10 02:11:37;;;;;;;1.08;0.90;;;12.40;99.90;;;;;;5148338;27;20056;-83
2022/05/10 02:14:09;;;;;;;1.08;0.80;;;12.40;99.90;;;;;;5123556;27;20462;-82
2022/05/10 02:17:06;;;;;;;1.40;0.90;;;12.40;99.90;;;;;;5127655;27;20074;-82
2022/05/10 02:19:41;;;;;;;1.92;1.08;;;12.40;99.90;;;;;;5142732;27;20039;-82
2022/05/10 02:22:12;;;;;;;2.30;1.05;;;12.40;99.90;;;;;;5144644;27;20043;-82
2022/05/10 02:24:43;;;;;;;1.13;0.80;;;12.40;99.90;;;;;;5134667;27;20039;-82
2022/05/10 02:27:13;;;;;;;1.15;0.90;;;12.40;99.90;;;;;;5148532;27;20378;-82
2022/05/10 02:29:45;;;;;;;0.70;0.60;;;12.40;99.90;;;;;;5153227;27;20142;-82
2022/05/10 02:35:03;;;;;;;1.80;0.90;;;12.40;99.90;;;;;;5152545;27;20050;-83
2022/05/10 02:37:29;;;;;;;1.40;0.90;;;12.40;99.90;;;;;;5146363;27;20118;-82
2022/05/10 02:39:54;;;;;;;1.27;0.90;;;12.40;99.90;;;;;;5138191;27;20260;-82
2022/05/10 02:42:22;;;;;;;1.85;0.88;;;12.40;99.90;;;;;;5116002;27;20136;-82
2022/05/10 02:44:50;;;;;;;1.80;1.00;;;12.40;99.90;;;;;;5132957;27;20046;-82
2022/05/10 02:47:31;;;;;;;1.33;0.85;;;12.40;99.90;;;;;;5143553;27;20051;-82
2022/05/10 02:49:57;;;;;;;2.22;1.00;;;12.40;99.90;;;;;;5141140;27;20050;-82
2022/05/10 02:52:23;;;;;;;1.20;0.90;;;12.30;99.90;;;;;;5144954;27;20057;-82
2022/05/10 02:55:14;;;;;;;0.88;0.80;;;12.30;99.90;;;;;;5124918;27;20123;-82
2022/05/10 02:57:40;;;;;;;1.63;0.88;;;12.20;99.90;;;;;;5148383;27;20038;-82
2022/05/10 03:00:07;;;;;;;1.50;0.80;;;12.30;99.90;;;;;;5151329;27;20035;-82
2022/05/10 03:02:41;;;;;;;1.55;0.90;;;12.20;99.90;;;;;;5157746;27;20069;-82
2022/05/10 03:05:08;;;;;;;1.08;0.70;;;12.30;99.90;;;;;;5164817;27;20026;-81
2022/05/10 03:07:34;;;;;;;1.70;0.90;;;12.30;99.90;;;;;;5165600;27;20031;-81
2022/05/10 03:10:00;;;;;;;1.27;0.90;;;12.30;99.90;;;;;;5149309;27;20530;-82
2022/05/10 03:12:25;;;;;;;1.65;0.80;;;12.30;99.90;;;;;;5174550;27;20050;-82
2022/05/10 03:14:54;;;;;;;1.55;0.95;;;12.20;99.90;;;;;;5146288;27;20042;-82
2022/05/10 03:17:19;;;;;;;0.90;0.60;;;12.20;99.90;;;;;;5132888;27;20042;-82
2022/05/10 03:19:46;;;;;;;1.33;0.80;;;12.20;99.90;;;;;;5139204;27;20031;-82
2022/05/10 03:22:12;;;;;;;1.50;0.75;;;12.20;99.90;;;;;;5143082;27;20058;-82
2022/05/10 03:24:38;;;;;;;1.08;0.55;;;12.20;99.90;;;;;;5117757;27;20474;-81
2022/05/10 03:27:05;;;;;;;1.30;0.95;;;12.20;99.90;;;;;;5125395;27;20035;-82
2022/05/10 03:29:32;;;;;;;2.70;0.95;;;12.20;99.90;;;;;;5132965;27;20471;-81
2022/05/10 03:31:58;;;;;;;1.08;0.90;;;12.20;99.90;;;;;;5137209;27;20038;-81
2022/05/10 03:37:08;;;;;;;2.38;1.23;;;12.20;99.90;;;;;;5150962;27;20195;-81
2022/05/10 03:39:35;;;;;;;1.30;1.10;;;12.30;99.90;;;;;;5133267;27;20494;-82
2022/05/10 03:42:02;;;;;;;3.60;1.70;;;12.30;99.90;;;;;;5147705;27;20072;-82
2022/05/10 03:44:31;;;;;;;2.80;2.00;;;12.30;99.90;;;;;;5130537;27;20634;-82
2022/05/10 03:46:57;;;;;;;3.53;1.58;;;12.40;99.90;;;;;;5135979;27;20427;-82
2022/05/10 03:49:22;;;;;;;3.13;1.80;;;12.40;99.90;;;;;;5152351;27;20054;-81
2022/05/10 03:51:48;;;;;;;2.53;1.40;;;12.50;99.90;;;;;;5142516;27;20062;-82
2022/05/10 03:54:14;;;;;;;2.55;1.65;;;12.50;99.90;;;;;;5114164;27;20047;-82
2022/05/10 03:56:39;;;;;;;1.88;1.52;;;12.60;99.90;;;;;;5137628;27;20114;-82
2022/05/10 03:59:05;;;;;;;2.25;1.50;;;12.60;99.90;;;;;;5100172;27;20096;-82
2022/05/10 04:01:32;;;;;;;2.85;1.70;;;12.60;99.90;;;;;;5129702;27;20042;-81
2022/05/10 04:03:57;;;;;;;2.08;1.50;;;12.70;99.90;;;;;;5146875;27;20070;-81
2022/05/10 04:06:23;;;;;;;2.42;1.75;;;12.70;99.90;;;;;;5114812;27;20050;-81
2022/05/10 04:08:49;;;;;;;3.13;1.90;;;12.70;99.90;;;;;;5129781;27;20046;-81
2022/05/10 04:11:14;;;;;;;4.93;2.67;;;12.80;99.90;;;;;;5145441;27;20042;-81
2022/05/10 04:13:41;;;;;;;4.93;2.50;;;12.80;99.90;;;;;;5121669;27;20054;-81
2022/05/10 04:16:08;;;;;;;4.28;2.60;;;12.90;99.90;;;;;;5152717;27;20099;-81
2022/05/10 04:18:34;;;;;;;4.25;2.30;;;12.90;99.90;;;;;;5134682;27;20049;-81
2022/05/10 04:21:00;;;;;;;3.13;2.22;;;13.00;99.90;;;;;;5145646;27;20041;-82
2022/05/10 04:23:26;;;;;;;2.85;2.13;;;13.00;99.90;;;;;;5146002;27;20042;-81
2022/05/10 04:25:52;;;;;;;1.88;1.42;;;13.00;99.90;;;;;;5149230;27;20489;-81
2022/05/10 04:28:20;;;;;;;3.17;1.90;;;13.00;99.90;;;;;;5133526;27;20046;-82
2022/05/10 04:30:46;;;;;;;2.75;2.13;;;13.00;99.90;;;;;;5136822;27;20084;-82
2022/05/10 04:33:12;;;;;;;4.55;2.60;;;13.00;99.90;;;;;;5131038;27;20042;-82
2022/05/10 04:35:37;;;;;;;4.60;2.50;;;13.10;99.90;;;;;;5134369;27;20061;-82
2022/05/10 04:38:04;;;;;;;5.50;3.08;;;13.10;99.90;;;;;;5123255;27;20061;-82
2022/05/10 04:43:15;;;;;;;3.33;2.15;;;13.10;99.90;;;;;;5132469;27;20654;-82
2022/05/10 04:45:41;;;;;;;3.42;1.90;;;13.10;99.90;;;;;;5115273;27;20074;-82
2022/05/10 04:48:07;;;;;;;2.75;1.70;;;13.20;99.90;;;;;;5122078;27;20481;-82
2022/05/10 04:50:33;;;;;;;4.05;2.00;;;13.20;99.90;;;;;;5132734;27;20350;-82
2022/05/10 04:52:58;;;;;;;4.47;1.80;;;13.20;99.90;;;;;;5132965;27;20082;-82
2022/05/10 04:55:24;;;;;;;2.67;1.70;;;13.30;99.90;;;;;;5146244;27;20359;-82
2022/05/10 04:57:50;;;;;;;3.90;2.25;;;13.30;99.90;;;;;;5151143;27;20401;-82
2022/05/10 05:00:16;;;;;;;3.33;2.10;;;13.40;99.90;;;;;;5132438;27;20047;-82
2022/05/10 05:02:42;;;;;;;3.72;2.58;;;13.40;99.90;;;;;;5130126;27;20074;-81
2022/05/10 05:05:10;;;;;;;4.07;2.53;;;13.40;99.90;;;;;;5118703;27;20048;-82
2022/05/10 05:07:35;;;;;;;3.22;2.45;;;13.50;99.90;;;;;;5113534;28;20086;-82
2022/05/10 05:10:05;;;;;;;4.03;2.22;;;13.50;99.90;;;;;;5140394;27;20130;-82
2022/05/10 05:12:34;;;;;;;5.15;2.95;;;13.50;99.90;;;;;;5130449;27;20057;-82
2022/05/10 05:15:02;;;;;;;5.07;2.80;;;13.60;99.90;;;;;;5120748;27;20049;-82
2022/05/10 05:17:28;;;;;;;5.93;3.20;;;13.60;99.90;;;;;;5142376;27;20046;-82
2022/05/10 05:19:54;;;;;;;3.33;2.90;;;13.70;99.90;;;;;;5139030;27;20042;-78
2022/05/10 05:22:19;;;;;;;3.80;2.60;;;13.70;99.90;;;;;;5131661;27;20046;-79
2022/05/10 05:24:45;;;;;;;4.85;2.38;;;13.80;99.90;;;;;;5141874;27;20031;-79
2022/05/10 05:27:11;;;;;;;6.10;3.30;;;13.80;99.90;;;;;;5155004;27;20130;-78
2022/05/10 05:29:37;;;;;;;4.80;3.40;;;13.90;99.90;;;;;;5139894;27;20039;-78
2022/05/10 05:32:08;;;;;;;6.78;3.95;;;14.00;99.90;;;;;;5151781;27;20031;-78
2022/05/10 05:34:35;;;;;;;6.00;3.95;;;14.00;99.90;;;;;;5145052;27;20050;-80
2022/05/10 05:39:46;;;;;;;5.03;3.33;;;14.20;99.90;;;;;;5143798;27;20039;-80
2022/05/10 05:42:11;;;;;;;4.50;3.15;;;14.30;99.90;;;;;;5139826;27;20104;-79
2022/05/10 05:44:37;;;;;;;5.63;3.70;;;14.30;99.90;;;;;;5153277;27;20394;-79
2022/05/10 05:47:03;;;;;;;5.13;3.38;;;14.30;99.90;;;;;;5146919;27;20037;-81
2022/05/10 05:49:29;;;;;;;7.03;3.80;;;14.40;99.90;;;;;;5130707;27;20045;-79
2022/05/10 05:51:59;;;;;;;5.32;3.72;;;14.50;99.90;;;;;;5141141;27;20055;-78
2022/05/10 05:54:25;;;;;;;6.63;4.20;;;14.60;99.90;;;;;;5154651;27;20098;-78
2022/05/10 05:57:05;;;;;;;9.13;4.90;;;14.60;99.90;;;;;;5126150;27;20118;-79
2022/05/10 05:59:32;;;;;;;6.82;4.22;;;14.70;99.90;;;;;;5132466;27;20187;-79
2022/05/10 06:01:58;;;;;;;5.60;3.85;;;14.70;99.90;;;;;;5127042;27;20046;-79
2022/05/10 06:04:25;;;;;;;9.00;4.60;;;14.80;99.90;;;;;;5135982;27;20047;-80
2022/05/10 06:06:50;;;;;;;6.53;4.18;;;14.80;99.90;;;;;;5141683;27;20049;-80
2022/05/10 06:09:22;;;;;;;6.03;3.80;;;14.90;99.90;;;;;;5141800;27;20047;-82
2022/05/10 06:11:49;;;;;;;5.43;3.58;;;15.00;99.90;;;;;;5139176;27;20083;-79
2022/05/10 06:14:14;;;;;;;6.85;3.38;;;15.20;99.90;;;;;;5148682;27;20218;-79
2022/05/10 06:16:41;;;;;;;5.82;3.60;;;15.30;99.90;;;;;;5142071;27;20200;-79
2022/05/10 06:19:14;;;;;;;4.93;3.67;;;15.40;99.90;;;;;;5138092;27;20031;-79
2022/05/10 06:21:41;;;;;;;4.20;2.85;;;15.60;99.90;;;;;;5134267;27;20038;-80
2022/05/10 06:24:08;;;;;;;5.57;3.45;;;15.70;99.90;;;;;;5138461;27;20070;-79
2022/05/10 06:26:33;;;;;;;4.35;3.38;;;15.90;99.90;;;;;;5152533;27;20063;-79
2022/05/10 06:28:59;;;;;;;5.10;3.42;;;16.10;99.90;;;;;;5138767;27;20389;-79
2022/05/10 06:31:25;;;;;;;5.13;4.32;;;16.30;99.90;;;;;;5130215;27;20126;-80
2022/05/10 06:33:51;;;;;;;4.93;3.40;;;16.40;99.90;;;;;;5145247;27;20046;-79
2022/05/10 06:36:16;;;;;;;6.50;3.65;;;16.60;99.90;;;;;;5119319;27;20125;-81
2022/05/10 06:38:43;;;;;;;6.57;3.42;;;16.80;99.90;;;;;;5147837;27;20034;-79
2022/05/10 06:41:08;;;;;;;4.43;3.03;;;16.90;99.90;;;;;;5146782;27;20055;-79
2022/05/10 06:43:36;;;;;;;4.97;3.70;;;17.20;99.90;;;;;;5134505;27;20066;-78
2022/05/10 06:46:14;;;;;;;6.68;4.10;;;17.50;99.90;;;;;;5154403;27;20047;-78
2022/05/10 06:48:40;;;;;;;5.78;3.63;;;17.70;99.90;;;;;;5143540;27;20148;-78
2022/05/10 06:51:07;;;;;;;7.85;3.47;;;17.80;99.90;;;;;;5137610;27;20162;-78
2022/05/10 06:53:33;;;;;;;5.53;3.47;;;18.00;99.90;;;;;;5146978;27;20102;-79
2022/05/10 06:55:59;;;;;;;4.53;3.00;;;18.20;99.90;;;;;;5150386;27;20137;-79
2022/05/10 06:58:25;;;;;;;6.28;3.08;;;18.30;99.90;;;;;;5123049;27;20461;-78
2022/05/10 07:00:51;;;;;;;4.63;2.83;;;18.40;99.90;;;;;;5139715;27;20500;-78
2022/05/10 07:03:22;;;;;;;;;;;18.50;99.90;;;;;;5157930;27;20478;-79
2022/05/10 07:05:47;;;;;;;5.10;3.05;;;18.60;99.90;;;;;;5140104;27;19915;-79
2022/05/10 07:08:13;;;;;;;;;;;18.70;99.90;;;;;;5146515;27;20039;-79
2022/05/10 07:10:39;;;;;;;4.97;3.08;;;18.80;99.90;;;;;;5130486;27;19920;-78
2022/05/10 07:13:05;;;;;;;;;;;19.00;99.90;;;;;;5140244;27;20139;-79
2022/05/10 07:15:31;;;;;;;3.65;2.90;;;19.10;99.90;;;;;;5144973;27;19954;-79
2022/05/10 07:17:57;;;;;;;4.00;2.60;;;19.20;99.90;;;;;;5125916;27;20038;-79
2022/05/10 07:20:22;;;;;;;;;;;19.30;99.90;;;;;;5146306;27;20123;-79
2022/05/10 07:22:48;;;;;;;3.53;2.17;;;19.40;99.90;;;;;;5137175;27;19923;-80
2022/05/10 07:25:19;;;;;;;;;;;19.40;99.90;;;;;;5150516;27;20043;-79
2022/05/10 07:27:44;;;;;;;4.88;2.80;;;19.50;99.90;;;;;;5144342;27;19933;-79
2022/05/10 07:30:11;;;;;;;;;;;19.60;99.90;;;;;;5140275;27;20039;-79
2022/05/10 07:32:36;;;;;;;3.55;2.40;;;19.80;99.90;;;;;;5136816;27;19964;-79
2022/05/10 07:35:03;;;;;;;;;;;20.00;99.80;;;;;;5138512;27;20039;-79
2022/05/10 07:37:30;;;;;;;5.13;3.20;;;20.00;99.00;;;;;;5141352;27;19982;-80
2022/05/10 07:39:55;;;;;;;7.05;3.25;;;20.20;98.70;;;;;;5140256;27;20824;-79
2022/05/10 07:42:21;;;;;;;;;;;20.40;98.10;;;;;;5150403;27;20047;-79
2022/05/10 07:44:51;;;;;;;4.55;2.70;;;20.50;97.10;;;;;;5143983;27;20289;-79
2022/05/10 07:47:17;;;;;;;8.80;4.00;;;20.60;97.10;;;;;;5136000;27;20454;-79
2022/05/10 07:49:42;;;;;;;8.38;3.72;;;20.60;96.30;;;;;;5143129;27;20403;-79
2022/05/10 07:52:08;;;;;;;;;;;20.60;96.10;;;;;;5121419;27;20102;-79
2022/05/10 07:54:36;;;;;;;6.10;3.38;;;20.40;95.60;;;;;;5127281;27;19923;-79
2022/05/10 07:57:02;;;;;;;7.00;3.55;;;20.40;95.40;;;;;;5131006;27;20383;-79
2022/05/10 07:59:28;;;;;;;4.75;3.05;;;20.40;95.40;;;;;;5134364;27;20043;-79
2022/05/10 08:01:54;;;;;;;8.13;3.33;;;20.40;95.70;;;;;;5126673;27;20039;-79
2022/05/10 08:04:19;;;;;;;;;;;20.40;95.50;;;;;;5137476;27;20122;-80
2022/05/10 08:06:46;;;;;;;6.07;3.10;;;20.60;95.70;;;;;;5147969;27;19962;-79
2022/05/10 08:09:12;;;;;;;5.93;2.70;;;20.60;95.10;;;;;;5142369;27;20062;-79
2022/05/10 08:11:39;;;;;;;4.95;2.72;;;20.70;95.40;;;;;;5143375;27;20078;-79
2022/05/10 08:14:05;;;;;;;5.00;2.70;;;20.90;95.10;;;;;;5140834;27;20068;-79
2022/05/10 08:16:32;;;;;;;4.60;2.40;;;21.00;94.80;;;;;;5141551;27;20438;-79
2022/05/10 08:18:58;;;;;;;6.70;2.88;;;21.00;94.80;;;;;;5133072;27;20126;-79
2022/05/10 08:21:24;;;;;;;5.55;2.78;;;21.00;94.50;;;;;;5152438;27;20437;-79
2022/05/10 08:23:52;;;;;;;6.95;2.63;;;21.00;94.50;;;;;;5107827;27;20505;-79
2022/05/10 08:26:20;;;;;;;5.50;2.10;;;21.00;94.40;;;;;;5110266;27;20492;-79
2022/05/10 08:28:46;;;;;;;4.95;2.60;;;21.10;95.00;;;;;;5138645;27;20046;-79
2022/05/10 08:31:11;;;;;;;5.70;2.05;;;21.10;94.40;;;;;;5117068;27;20050;-79
2022/05/10 08:33:40;;;;;;;4.78;2.50;;;21.10;94.40;;;;;;5146656;27;20043;-78
2022/05/10 08:36:09;;;;;;;5.13;2.72;;;21.20;95.00;;;;;;5115217;27;20054;-79
2022/05/10 08:38:35;;;;;;;4.85;2.80;;;21.20;94.80;;;;;;5135940;27;20477;-79
2022/05/10 08:41:22;;;;;;;4.80;2.63;;;21.20;93.90;;;;;;5117956;27;20487;-79
2022/05/10 08:43:55;;;;;;;4.85;2.38;;;21.30;93.90;;;;;;5136337;27;20792;-79
2022/05/10 08:46:30;;;;;;;4.65;2.40;;;21.40;94.60;;;;;;5137213;27;20097;-79
2022/05/10 08:49:03;;;;;;;4.00;1.90;;;21.50;94.00;;;;;;5124016;27;20097;-79
2022/05/10 08:51:31;;;;;;;3.40;2.08;;;21.50;94.10;;;;;;5114772;27;20051;-79
2022/05/10 08:53:57;;;;;;;3.47;1.98;;;21.60;93.90;;;;;;5132326;27;20465;-79
2022/05/10 08:56:59;;;;;;;3.88;2.08;;;21.70;94.20;;;;;;5145086;27;21634;-79
2022/05/10 08:59:55;;;;;;;3.08;1.92;;;21.70;94.10;;;;;;5143407;27;20035;-79
2022/05/10 09:02:47;;;;;;;6.72;2.50;;;21.70;93.30;;;;;;5133189;27;20043;-79
2022/05/10 09:05:20;;;;;;;6.60;2.20;;;21.70;93.00;;;;;;5133423;27;20031;-79
2022/05/10 09:08:17;;;;;;;5.57;2.30;;;21.70;93.00;;;;;;5132037;27;20046;-79
2022/05/10 09:10:51;;;;;;;3.50;2.30;;;21.80;93.30;;;;;;5114647;27;20039;-78
2022/05/10 09:13:19;;;;;;;7.10;2.05;;;21.80;92.70;;;;;;5128024;27;20092;-78
2022/05/10 09:15:57;;;;;;;2.60;1.60;;;21.90;93.00;;;;;;5141595;27;20026;-78
2022/05/10 09:18:25;;;;;;;3.25;2.00;;;22.00;93.40;;;;;;5120048;27;20126;-79
2022/05/10 09:21:02;;;;;;;4.70;2.30;;;21.90;92.50;;;;;;5116985;27;20085;-79
2022/05/10 09:23:47;;;;;;;3.60;1.73;;;22.00;92.60;;;;;;5130268;27;20051;-79
2022/05/10 09:26:14;;;;;;;3.60;1.85;;;22.10;92.90;;;;;;5134928;27;20039;-78
2022/05/10 09:29:12;;;;;;;5.30;2.08;;;22.10;92.60;;;;;;5130391;27;20150;-78
2022/05/10 09:37:26;;;;;;;7.22;2.30;;;22.60;91.80;;;;;;5134109;27;20107;-78
2022/05/10 09:39:57;;;;;;;4.93;1.88;;;22.60;91.80;;;;;;5134814;27;20574;-80
2022/05/10 09:42:34;;;;;;;5.25;2.40;;;22.60;91.40;;;;;;5131562;27;20039;-79
2022/05/10 09:45:12;;;;;;;;;;;22.60;91.30;;;;;;5130393;27;20042;-79
2022/05/10 09:47:38;;;;;;;4.35;2.20;;;22.60;90.90;;;;;;5115068;28;19916;-79
2022/05/10 09:50:19;;;;;;;6.28;2.40;;;22.80;91.60;;;;;;5124988;27;20111;-80
2022/05/10 09:52:47;;;;;;;5.43;2.65;;;23.00;90.90;;;;;;5116770;28;20108;-79
2022/05/10 09:55:34;;;;;;;5.38;2.30;;;23.30;90.90;;;;;;5129342;27;20118;-79
2022/05/10 09:58:16;;;;;;;3.22;2.10;;;23.30;90.80;;;;;;5136735;27;20039;-79
2022/05/10 10:00:44;;;;;;;4.57;2.75;;;23.20;91.10;;;;;;5129737;27;20043;-79
2022/05/10 10:03:32;;;;;;;3.60;2.42;;;22.90;90.90;;;;;;5134850;27;20130;-79
2022/05/10 10:06:13;;;;;;;7.50;2.88;;;22.60;91.00;;;;;;5143491;27;20039;-80
2022/05/10 10:08:59;;;;;;;8.60;3.00;;;22.50;91.30;;;;;;5135717;27;20046;-80
2022/05/10 10:11:28;;;;;;;8.60;2.50;;;22.50;91.20;;;;;;5138857;27;20778;-80
2022/05/10 10:14:04;;;;;;;9.82;3.15;;;22.50;91.40;;;;;;5143165;27;20031;-79
2022/05/10 10:16:32;;;;;;;;;;;22.50;91.50;;;;;;5143279;27;20038;-79
2022/05/10 10:19:05;;;;;;;5.22;2.95;;;22.50;91.60;;;;;;5133060;27;19919;-79
2022/05/10 10:21:46;;;;;;;7.47;3.42;;;22.60;91.70;;;;;;5133647;27;20514;-79
2022/05/10 10:24:35;;;;;;;4.72;2.72;;;22.70;91.70;;;;;;5137580;27;20449;-82
2022/05/10 10:27:08;;;;;;;4.20;2.88;;;23.00;92.20;;;;;;5142419;27;20130;-77
2022/05/10 10:29:46;;;;;;;6.35;3.60;;;23.10;91.70;;;;;;5145703;27;20500;-78
2022/05/10 10:32:29;;;;;;;5.97;3.28;;;23.40;91.70;;;;;;5135842;27;20047;-78
2022/05/10 10:35:02;;;;;;;5.22;3.42;;;23.30;91.50;;;;;;5153419;27;20053;-78
2022/05/10 10:37:54;;;;;;;5.53;2.97;;;23.20;91.40;;;;;;5138849;27;20047;-78
2022/05/10 10:40:37;;;;;;;6.07;3.38;;;23.30;92.00;;;;;;5145169;27;20431;-78
2022/05/10 10:43:46;;;;;;;4.70;2.70;;;23.30;92.20;;;;;;5139831;27;20427;-79
2022/05/10 10:46:31;;;;;;;5.53;3.72;;;23.50;92.10;;;;;;5034370;28;20079;-78
2022/05/10 10:49:07;;;;;;;9.15;4.22;;;23.40;91.60;;;;;;5131912;27;20058;-77
2022/05/10 10:51:34;;;;;;;6.23;3.53;;;23.20;91.50;;;;;;5133618;27;20090;-77
2022/05/10 10:54:01;;;;;;;5.55;3.30;;;23.00;91.50;;;;;;5140421;27;20038;-77
2022/05/10 10:56:33;;;;;;;4.25;3.00;;;23.00;92.20;;;;;;5132615;27;20047;-78
2022/05/10 10:59:11;;;;;;;6.22;3.65;;;23.00;92.30;;;;;;5150486;27;20039;-77
2022/05/10 11:01:51;;;;;;;7.93;4.05;;;22.90;92.40;;;;;;5133147;27;20436;-77
2022/05/10 11:04:29;;;;;;;7.03;3.53;;;22.80;92.50;;;;;;5146389;27;20136;-78
2022/05/10 11:06:55;;;;;;;9.15;3.20;;;22.60;92.50;;;;;;5138199;27;20042;-78
2022/05/10 11:09:43;;;;;;;7.93;3.53;;;22.50;94.20;;;;;;5134884;27;20478;-78
2022/05/10 11:12:17;;;;;;;5.05;3.20;;;22.20;94.30;;;;;;5131976;27;20049;-78
2022/05/10 11:15:12;;;;;;;8.98;3.17;;;22.00;94.00;;;;;;5134419;27;20055;-78
2022/05/10 11:17:55;;;;;;;6.25;2.85;;;21.90;93.70;;;;;;5134440;27;20064;-79
2022/05/10 11:20:46;;;;;;;4.78;2.20;;;21.90;92.20;;;;;;5135112;27;20060;-79
2022/05/10 11:23:19;;;;;;;8.00;2.50;;;22.00;92.20;;;;;;5138546;27;20046;-78
2022/05/10 11:26:00;;;;;;;5.65;2.33;;;22.10;91.80;;;;;;5131254;27;20486;-78
2022/05/10 11:28:50;;;;;;;3.85;1.90;;;22.20;91.30;;;;;;5138142;27;20038;-77
2022/05/10 11:31:18;;;;;;;5.05;2.00;;;22.30;91.80;;;;;;5151624;27;20039;-78
2022/05/10 11:33:44;;;;;;;3.97;2.30;;;22.40;91.10;;;;;;5125728;27;20053;-78
2022/05/10 11:36:40;;;;;;;5.93;2.55;;;22.40;91.20;;;;;;5135361;27;20047;-78
2022/05/10 11:39:30;;;;;;;5.65;2.60;;;22.50;90.90;;;;;;5130709;27;20038;-78
2022/05/10 11:42:20;;;;;;;6.50;2.67;;;22.50;91.00;;;;;;5153083;27;20031;-77
2022/05/10 11:45:05;;;;;;;5.85;2.60;;;22.60;91.00;;;;;;5120536;27;20108;-78
2022/05/10 11:47:45;;;;;;;8.40;3.28;;;22.70;91.60;;;;;;5133416;27;20043;-79
2022/05/10 11:50:11;;;;;;;5.05;3.20;;;22.50;91.20;;;;;;5145193;27;20118;-78
2022/05/10 11:53:06;;;;;;;8.27;3.15;;;22.40;91.60;;;;;;5130762;27;20193;-78
2022/05/10 11:55:47;;;;;;;6.47;3.40;;;22.30;92.00;;;;;;5140144;27;20043;-78
2022/05/10 11:58:14;;;;;;;3.85;2.65;;;22.30;92.10;;;;;;5140213;27;20231;-78
2022/05/10 12:00:54;;;;;;;7.85;3.10;;;22.60;92.20;;;;;;5143690;27;20031;-78
2022/05/10 12:03:43;;;;;;;5.88;3.70;;;23.00;92.30;;;;;;5137298;27;20039;-76
2022/05/10 12:06:24;;;;;;;11.73;3.90;;;23.40;91.40;;;;;;5116875;27;20494;-77
2022/05/10 12:08:52;;;;;;;8.52;4.10;;;23.40;91.50;;;;;;5129957;27;20043;-77
2022/05/10 12:11:37;;;;;;;6.93;3.58;;;23.20;91.10;;;;;;5139100;27;20100;-75
2022/05/10 12:23:00;;;;;;;11.15;5.30;;;23.00;92.60;;;;;;5136972;27;20047;-76
2022/05/10 12:25:59;;;;;;;6.38;4.60;;;22.90;92.70;;;;;;5137887;27;20611;-75
2022/05/10 12:28:47;;;;;;;5.63;3.92;;;22.90;92.60;;;;;;5125325;27;20119;-76
2022/05/10 12:31:58;;;;;;;7.07;3.65;;;22.70;92.60;;;;;;5141534;27;20063;-76
2022/05/10 12:34:46;;;;;;;5.82;3.60;;;22.60;92.60;;;;;;5140870;27;20454;-76
2022/05/10 12:37:35;;;;;;;6.80;3.35;;;22.60;93.00;;;;;;5142436;27;20039;-76
2022/05/10 12:40:10;;;;;;;5.72;3.10;;;22.60;93.10;;;;;;5144434;27;20319;-76
2022/05/10 12:43:19;;;;;;;7.38;3.60;;;22.60;93.30;;;;;;5117630;27;20490;-75
2022/05/10 12:45:50;;;;;;;6.72;3.40;;;22.60;93.00;;;;;;5140796;27;20113;-76
2022/05/10 12:48:39;;;;;;;6.03;3.15;;;22.30;93.00;;;;;;5135480;27;20043;-76
2022/05/10 12:51:45;;;;;;;6.28;2.95;;;22.30;92.90;;;;;;5131905;27;20039;-76
2022/05/10 12:54:26;;;;;;;6.35;2.50;;;22.10;92.80;;;;;;5126433;27;20397;-77
2022/05/10 12:57:10;;;;;;;6.38;2.15;;;21.80;92.30;;;;;;5137591;27;20082;-77
2022/05/10 13:00:06;;;;;;;5.10;2.03;;;21.80;91.70;;;;;;5134489;27;20448;-77
2022/05/10 13:02:34;;;;;;;4.65;1.60;;;21.70;91.60;;;;;;5129621;27;20042;-77
2022/05/10 13:05:04;;;;;;;5.53;1.88;;;21.70;90.20;;;;;;5136138;27;20481;-78
2022/05/10 13:08:23;;;;;;;4.35;1.88;;;21.70;90.10;;;;;;5141429;27;20153;-80
2022/05/10 13:10:50;;;;;;;3.42;1.80;;;21.70;90.20;;;;;;5072752;27;20044;-78
2022/05/10 13:13:26;;;;;;;4.60;2.05;;;21.70;89.70;;;;;;5123801;27;20043;-77
2022/05/10 13:15:52;;;;;;;9.50;1.85;;;21.60;88.70;;;;;;5136086;27;20043;-78
2022/05/10 13:18:24;;;;;;;4.03;1.80;;;21.50;85.70;;;;;;5134711;27;20039;-78
2022/05/10 13:20:52;;;;;;;4.38;1.73;;;21.50;86.20;;;;;;5141480;27;20034;-78
2022/05/10 13:23:19;;;;;;;4.78;1.70;;;21.50;86.00;;;;;;5138161;27;20404;-77
2022/05/10 13:25:47;;;;;;;3.67;1.65;;;21.40;85.30;;;;;;5135850;27;20046;-77
2022/05/10 13:28:18;;;;;;;2.53;1.50;;;21.30;87.10;;;;;;5151641;27;20066;-78
2022/05/10 13:30:50;;;;;;;4.78;1.60;;;21.20;87.00;;;;;;5139074;27;20092;-78
2022/05/10 13:33:24;;;;;;;6.72;1.70;;;21.10;87.90;;;;;;5131302;27;20039;-78
2022/05/10 13:35:55;;;;;;;4.28;1.30;;;21.10;87.40;;;;;;5132158;27;20076;-78
2022/05/10 13:38:31;;;;;;;3.47;1.30;;;21.10;85.40;;;;;;5143569;27;20050;-77
2022/05/10 13:41:03;;;;;;;4.43;1.27;;;21.10;85.80;;;;;;5139353;27;20042;-77
2022/05/10 13:43:34;;;;;;;2.85;1.13;;;21.20;86.80;;;;;;5139112;27;20870;-77
2022/05/10 13:46:15;;;;;;;3.10;1.40;;;21.20;86.00;;;;;;5139247;27;20031;-76